Time;durP1;ratioP1;P1;durP2;ratioP2;P2;SDS_P1;SDS_P2;PMS_P1;PMS_P2;Temp;Humidity;BMP_temperature;BMP_pressure;BME280_temperature;BME280_humidity;BME280_pressure;Samples;Min_cycle;Max_cycle;Signal;HPM_P1;HPM_P2
2024/01/30 00:02:15;;;;;;;0.10;0.10;;;;;;;2.34;100.00;97743.03;4988188;28;20686;-73
2024/01/30 00:05:00;;;;;;;0.10;0.10;;;;;;;2.28;100.00;97743.66;4987528;28;20079;-73
2024/01/30 00:07:46;;;;;;;0.10;0.10;;;;;;;2.24;100.00;97744.97;4990262;28;20077;-73
2024/01/30 00:10:32;;;;;;;0.10;0.10;;;;;;;2.27;100.00;97739.38;4988445;28;20547;-76
2024/01/30 00:13:19;;;;;;;0.20;0.20;;;;;;;2.31;100.00;97726.66;4988818;28;20062;-76
2024/01/30 00:16:05;;;;;;;0.10;0.10;;;;;;;2.37;100.00;97723.34;4988723;28;20077;-74
2024/01/30 00:18:52;;;;;;;0.20;0.20;;;;;;;2.37;100.00;97726.00;4989452;28;20149;-76
2024/01/30 00:21:38;;;;;;;0.10;0.10;;;;;;;2.35;100.00;97728.81;4988958;28;20043;-74
2024/01/30 00:24:24;;;;;;;0.10;0.10;;;;;;;2.27;100.00;97731.47;4987818;28;20074;-75
2024/01/30 00:27:10;;;;;;;0.10;0.10;;;;;;;2.22;100.00;97739.03;4989096;28;20049;-75
2024/01/30 00:29:56;;;;;;;0.20;0.20;;;;;;;2.22;100.00;97720.56;4987365;28;20347;-74
2024/01/30 00:32:42;;;;;;;0.20;0.20;;;;;;;2.17;100.00;97734.25;4988753;28;20594;-75
2024/01/30 00:35:29;;;;;;;0.20;0.20;;;;;;;2.08;100.00;97723.84;4985277;28;20087;-75
2024/01/30 00:38:15;;;;;;;0.10;0.10;;;;;;;2.17;100.00;97733.41;4988054;28;20046;-76
2024/01/30 00:41:04;;;;;;;0.13;0.13;;;;;;;2.15;100.00;97730.94;4988631;28;20057;-76
2024/01/30 00:43:50;;;;;;;0.10;0.10;;;;;;;2.21;100.00;97734.75;4990098;28;20068;-76
2024/01/30 00:46:36;;;;;;;0.15;0.15;;;;;;;2.23;100.00;97722.19;4987078;28;20038;-73
2024/01/30 00:49:24;;;;;;;0.10;0.10;;;;;;;2.19;100.00;97729.63;5000301;28;20604;-72
2024/01/30 00:52:11;;;;;;;0.10;0.10;;;;;;;2.19;100.00;97718.25;4987577;28;20049;-74
2024/01/30 00:54:57;;;;;;;0.10;0.10;;;;;;;2.47;100.00;97713.44;4985650;28;20080;-76
2024/01/30 00:57:43;;;;;;;0.13;0.13;;;;;;;2.70;100.00;97703.00;4987311;28;20042;-76
2024/01/30 01:00:29;;;;;;;0.20;0.20;;;;;;;2.90;100.00;97714.03;4988056;28;20038;-73
2024/01/30 01:03:15;;;;;;;0.20;0.20;;;;;;;2.91;100.00;97711.22;4987249;28;20050;-72
2024/01/30 01:06:00;;;;;;;0.10;0.10;;;;;;;2.92;100.00;97719.97;4986662;28;20077;-76
2024/01/30 01:08:46;;;;;;;0.13;0.13;;;;;;;2.71;100.00;97723.16;4983707;28;20092;-76
2024/01/30 01:11:32;;;;;;;0.20;0.20;;;;;;;2.62;100.00;97722.34;4987682;28;20685;-73
2024/01/30 01:14:18;;;;;;;0.20;0.20;;;;;;;2.66;100.00;97717.56;4989907;28;20068;-74
2024/01/30 01:17:04;;;;;;;0.15;0.15;;;;;;;2.70;100.00;97710.91;4989722;28;20038;-74
2024/01/30 01:19:49;;;;;;;0.10;0.10;;;;;;;2.75;100.00;97711.25;4988554;28;20041;-75
2024/01/30 01:22:36;;;;;;;0.10;0.10;;;;;;;2.74;100.00;97709.59;4988213;28;20038;-75
2024/01/30 01:25:21;;;;;;;0.20;0.20;;;;;;;2.77;100.00;97715.38;4989366;28;20034;-77
2024/01/30 01:28:07;;;;;;;0.20;0.20;;;;;;;2.78;100.00;97711.72;4986106;28;20038;-76
2024/01/30 01:30:53;;;;;;;0.20;0.20;;;;;;;2.70;100.00;97711.75;4987535;28;20046;-73
2024/01/30 01:33:39;;;;;;;0.20;0.20;;;;;;;2.73;100.00;97705.31;4985522;28;20272;-74
2024/01/30 01:36:25;;;;;;;0.10;0.10;;;;;;;2.75;100.00;97704.16;4989241;28;20033;-76
2024/01/30 01:39:11;;;;;;;0.20;0.20;;;;;;;2.90;100.00;97704.28;4988437;28;20121;-72
2024/01/30 01:41:57;;;;;;;0.10;0.10;;;;;;;2.91;100.00;97716.50;4983906;28;20042;-77
2024/01/30 01:44:43;;;;;;;0.10;0.10;;;;;;;2.94;100.00;97710.03;4987861;28;20042;-76
2024/01/30 01:47:29;;;;;;;0.10;0.10;;;;;;;2.89;100.00;97707.91;4986942;28;20046;-74
2024/01/30 01:50:18;;;;;;;0.10;0.10;;;;;;;2.78;100.00;97709.09;4988336;28;20068;-76
2024/01/30 01:53:07;;;;;;;0.10;0.10;;;;;;;2.71;100.00;97709.94;4987918;28;20514;-74
2024/01/30 01:55:54;;;;;;;0.20;0.20;;;;;;;2.66;100.00;97709.63;4986659;28;20049;-74
2024/01/30 01:58:41;;;;;;;0.10;0.10;;;;;;;2.60;100.00;97705.00;4985011;28;20064;-76
2024/01/30 02:01:28;;;;;;;0.20;0.20;;;;;;;2.54;100.00;97703.03;4986547;28;20057;-74
2024/01/30 02:04:15;;;;;;;0.17;0.17;;;;;;;2.53;100.00;97707.50;4987465;28;20108;-77
2024/01/30 02:07:01;;;;;;;0.10;0.10;;;;;;;2.51;100.00;97707.66;4985830;28;20050;-76
2024/01/30 02:09:47;;;;;;;0.10;0.10;;;;;;;2.44;100.00;97703.22;4985722;28;20383;-74
2024/01/30 02:12:33;;;;;;;0.20;0.20;;;;;;;2.45;100.00;97700.41;4985687;28;20556;-72
2024/01/30 02:15:18;;;;;;;0.10;0.10;;;;;;;2.36;100.00;97697.94;4987824;28;20582;-74
2024/01/30 02:18:04;;;;;;;0.20;0.20;;;;;;;2.37;100.00;97689.00;4987199;28;20053;-73
2024/01/30 02:20:54;;;;;;;0.13;0.13;;;;;;;2.47;100.00;97701.03;4985959;28;20047;-73
2024/01/30 02:23:40;;;;;;;0.10;0.10;;;;;;;2.59;100.00;97690.97;4987009;28;20038;-76
2024/01/30 02:26:26;;;;;;;0.20;0.20;;;;;;;2.66;100.00;97693.78;4986425;28;20128;-76
2024/01/30 02:29:12;;;;;;;0.20;0.20;;;;;;;2.76;100.00;97697.03;4985628;28;20415;-73
2024/01/30 02:31:58;;;;;;;0.10;0.10;;;;;;;2.85;100.00;97696.03;4984749;28;20091;-76
2024/01/30 02:34:44;;;;;;;0.20;0.20;;;;;;;2.83;100.00;97690.09;4985146;28;20492;-77
2024/01/30 02:37:32;;;;;;;0.10;0.10;;;;;;;2.93;100.00;97700.47;4986983;28;20053;-74
2024/01/30 02:40:17;;;;;;;0.20;0.20;;;;;;;2.89;100.00;97702.63;4984446;28;20504;-73
2024/01/30 02:43:03;;;;;;;0.20;0.20;;;;;;;2.83;100.00;97698.00;4982442;28;20802;-74
2024/01/30 02:45:49;;;;;;;0.20;0.20;;;;;;;2.59;100.00;97696.25;4982560;28;20073;-73
2024/01/30 02:48:35;;;;;;;0.10;0.10;;;;;;;2.60;100.00;97691.78;4985775;28;20050;-74
2024/01/30 02:51:21;;;;;;;0.20;0.20;;;;;;;2.67;100.00;97690.94;4985497;28;20042;-74
2024/01/30 02:54:07;;;;;;;0.10;0.10;;;;;;;2.75;100.00;97688.28;4986295;28;20042;-75
2024/01/30 02:56:53;;;;;;;0.10;0.10;;;;;;;2.76;100.00;97673.25;4985573;28;20406;-75
2024/01/30 02:59:38;;;;;;;0.13;0.13;;;;;;;2.64;100.00;97683.34;4988706;28;20061;-75
2024/01/30 03:02:27;;;;;;;0.20;0.20;;;;;;;2.65;100.00;97677.09;4985886;28;20493;-74
2024/01/30 03:05:13;;;;;;;0.10;0.10;;;;;;;2.65;100.00;97674.44;4988524;28;20038;-77
2024/01/30 03:07:58;;;;;;;0.15;0.15;;;;;;;2.74;100.00;97680.53;4987697;28;20045;-76
2024/01/30 03:10:44;;;;;;;0.10;0.10;;;;;;;2.77;100.00;97685.47;4985302;28;20042;-74
2024/01/30 03:13:30;;;;;;;0.15;0.15;;;;;;;2.70;100.00;97672.09;4982127;28;20049;-75
2024/01/30 03:16:16;;;;;;;0.20;0.20;;;;;;;2.65;100.00;97684.19;4985705;28;20034;-75
2024/01/30 03:19:03;;;;;;;0.20;0.20;;;;;;;2.54;100.00;97681.88;4986748;28;20346;-75
2024/01/30 03:21:49;;;;;;;0.13;0.13;;;;;;;2.36;100.00;97671.53;4986304;28;20100;-74
2024/01/30 03:24:35;;;;;;;0.10;0.10;;;;;;;2.23;100.00;97666.72;4987478;28;20037;-74
2024/01/30 03:27:21;;;;;;;0.10;0.10;;;;;;;2.29;100.00;97665.25;4992485;28;20684;-75
2024/01/30 03:30:07;;;;;;;0.20;0.20;;;;;;;2.33;100.00;97670.00;4988217;28;20037;-76
2024/01/30 03:32:53;;;;;;;0.20;0.20;;;;;;;2.54;100.00;97664.22;4990154;28;20046;-75
2024/01/30 03:35:39;;;;;;;0.10;0.10;;;;;;;2.69;100.00;97664.34;4989619;28;20043;-73
2024/01/30 03:38:25;;;;;;;0.20;0.20;;;;;;;2.90;100.00;97658.50;4989825;28;20049;-74
2024/01/30 03:41:11;;;;;;;0.10;0.10;;;;;;;3.07;100.00;97655.63;4990829;28;20054;-77
2024/01/30 03:43:57;;;;;;;0.10;0.10;;;;;;;3.11;100.00;97663.19;4990146;28;20046;-75
2024/01/30 03:46:43;;;;;;;0.10;0.10;;;;;;;3.15;100.00;97653.94;4989638;28;20034;-76
2024/01/30 03:49:28;;;;;;;0.10;0.10;;;;;;;3.19;100.00;97656.06;4987544;28;20133;-73
2024/01/30 03:52:14;;;;;;;0.20;0.20;;;;;;;3.10;100.00;97657.09;4988525;28;20034;-74
2024/01/30 03:55:00;;;;;;;0.20;0.20;;;;;;;3.10;100.00;97661.56;4987264;28;20487;-73
2024/01/30 03:57:46;;;;;;;0.20;0.20;;;;;;;2.99;100.00;97654.84;4988914;28;20048;-73
2024/01/30 04:00:32;;;;;;;0.20;0.20;;;;;;;3.04;100.00;97655.16;4987327;28;20051;-75
2024/01/30 04:03:18;;;;;;;0.10;0.10;;;;;;;3.07;100.00;97650.31;4988112;28;20306;-73
2024/01/30 04:06:04;;;;;;;0.20;0.20;;;;;;;3.02;100.00;97652.66;4986264;28;20094;-74
2024/01/30 04:08:49;;;;;;;0.10;0.10;;;;;;;3.06;100.00;97653.16;4985713;28;20374;-76
2024/01/30 04:11:35;;;;;;;0.10;0.10;;;;;;;3.16;100.00;97652.94;4986419;28;20714;-73
2024/01/30 04:14:21;;;;;;;0.13;0.13;;;;;;;3.20;100.00;97662.19;4987652;28;20042;-73
2024/01/30 04:17:07;;;;;;;0.10;0.10;;;;;;;3.16;100.00;97659.03;4986434;28;20056;-73
2024/01/30 04:19:53;;;;;;;0.15;0.15;;;;;;;3.15;100.00;97651.28;4990528;28;20042;-73
2024/01/30 04:22:39;;;;;;;0.10;0.10;;;;;;;3.13;100.00;97650.66;4992169;28;20152;-71
2024/01/30 04:25:25;;;;;;;0.20;0.20;;;;;;;3.16;100.00;97653.75;4987934;28;20543;-72
2024/01/30 04:28:13;;;;;;;0.20;0.20;;;;;;;3.10;100.00;97651.78;5000827;28;20160;-74
2024/01/30 04:30:59;;;;;;;0.20;0.20;;;;;;;3.00;100.00;97654.66;4988063;28;20052;-74
2024/01/30 04:33:45;;;;;;;0.20;0.20;;;;;;;3.04;100.00;97653.31;4989589;28;20046;-72
2024/01/30 04:36:31;;;;;;;0.15;0.15;;;;;;;3.01;100.00;97648.38;4988287;28;20082;-76
2024/01/30 04:39:17;;;;;;;0.20;0.20;;;;;;;3.12;100.00;97654.28;4985861;28;20573;-74
2024/01/30 04:42:03;;;;;;;0.15;0.15;;;;;;;3.24;100.00;97650.25;4988831;28;20087;-74
2024/01/30 04:44:49;;;;;;;0.20;0.20;;;;;;;3.34;100.00;97653.50;4989291;28;20034;-74
2024/01/30 04:47:35;;;;;;;0.20;0.20;;;;;;;3.23;100.00;97660.00;4988688;28;20113;-75
2024/01/30 04:50:21;;;;;;;0.17;0.17;;;;;;;3.22;100.00;97650.44;4986652;28;20393;-76
2024/01/30 04:53:07;;;;;;;0.20;0.20;;;;;;;3.14;100.00;97641.72;4988665;28;20043;-75
2024/01/30 04:55:53;;;;;;;0.10;0.10;;;;;;;3.15;100.00;97644.19;4999643;28;20523;-74
2024/01/30 04:58:39;;;;;;;0.10;0.10;;;;;;;3.13;100.00;97648.00;4987973;28;20081;-73
2024/01/30 05:01:25;;;;;;;0.10;0.10;;;;;;;3.20;100.00;97639.19;4990086;28;20042;-73
2024/01/30 05:04:13;;;;;;;0.10;0.10;;;;;;;3.22;100.00;97652.25;4987912;28;20070;-76
2024/01/30 05:06:59;;;;;;;0.10;0.10;;;;;;;3.20;100.00;97647.13;4989452;28;20485;-75
2024/01/30 05:09:44;;;;;;;0.10;0.10;;;;;;;3.10;100.00;97637.75;4992957;28;20167;-76
2024/01/30 05:12:30;;;;;;;0.10;0.10;;;;;;;3.19;100.00;97649.94;4990317;28;20041;-72
2024/01/30 05:15:16;;;;;;;0.10;0.10;;;;;;;3.20;100.00;97651.59;4988727;28;20045;-75
2024/01/30 05:18:02;;;;;;;0.15;0.15;;;;;;;3.20;100.00;97646.31;4987517;28;20152;-76
2024/01/30 05:20:50;;;;;;;0.20;0.20;;;;;;;3.19;100.00;97649.94;4990306;28;20332;-74
2024/01/30 05:23:35;;;;;;;0.10;0.10;;;;;;;3.14;100.00;97641.72;4989126;28;20121;-74
2024/01/30 05:26:22;;;;;;;0.10;0.10;;;;;;;3.11;100.00;97648.16;4989977;28;20038;-75
2024/01/30 05:29:08;;;;;;;0.20;0.20;;;;;;;3.07;100.00;97639.75;4989375;28;20240;-75
2024/01/30 05:31:54;;;;;;;0.20;0.20;;;;;;;2.99;100.00;97639.78;4991357;28;20042;-74
2024/01/30 05:34:40;;;;;;;0.10;0.10;;;;;;;2.92;100.00;97645.94;4988281;28;20068;-75
2024/01/30 05:37:26;;;;;;;0.13;0.13;;;;;;;2.82;100.00;97645.31;4987062;28;20038;-75
2024/01/30 05:40:12;;;;;;;0.13;0.13;;;;;;;2.75;100.00;97659.22;4987928;28;20054;-76
2024/01/30 05:43:00;;;;;;;0.20;0.20;;;;;;;2.67;100.00;97650.47;4989447;28;20046;-75
2024/01/30 05:45:46;;;;;;;0.15;0.15;;;;;;;2.62;100.00;97652.78;4988589;28;20119;-75
2024/01/30 05:48:32;;;;;;;0.13;0.13;;;;;;;2.53;100.00;97648.53;4989484;28;20042;-74
2024/01/30 05:51:18;;;;;;;0.10;0.10;;;;;;;2.58;100.00;97646.22;4993397;28;20429;-73
2024/01/30 05:54:04;;;;;;;0.10;0.10;;;;;;;2.56;100.00;97648.19;5002574;28;20622;-74
2024/01/30 05:56:50;;;;;;;0.10;0.10;;;;;;;2.45;100.00;97646.72;4984559;28;20124;-73
2024/01/30 05:59:36;;;;;;;0.20;0.20;;;;;;;2.38;100.00;97637.81;4989383;28;20557;-73
2024/01/30 06:02:22;;;;;;;0.20;0.20;;;;;;;2.30;100.00;97633.38;4989769;28;20054;-75
2024/01/30 06:05:08;;;;;;;0.20;0.20;;;;;;;2.23;100.00;97635.03;4987273;28;20073;-76
2024/01/30 06:07:54;;;;;;;0.20;0.20;;;;;;;2.10;100.00;97630.28;4967405;28;20089;-74
2024/01/30 06:10:40;;;;;;;0.20;0.20;;;;;;;2.06;100.00;97638.69;4981137;28;20327;-74
2024/01/30 06:13:26;;;;;;;0.10;0.10;;;;;;;2.20;100.00;97641.50;4988735;28;20137;-74
2024/01/30 06:16:15;;;;;;;0.10;0.10;;;;;;;2.17;100.00;97623.31;4985714;28;20042;-73
2024/01/30 06:19:00;;;;;;;0.20;0.20;;;;;;;2.28;100.00;97635.38;4987283;28;20056;-76
2024/01/30 06:21:46;;;;;;;0.20;0.20;;;;;;;2.27;100.00;97638.19;4989496;28;20407;-76
2024/01/30 06:24:33;;;;;;;0.20;0.20;;;;;;;2.23;100.00;97638.50;4990945;28;20117;-76
2024/01/30 06:27:19;;;;;;;0.10;0.10;;;;;;;2.27;100.00;97646.09;4988613;28;20042;-75
2024/01/30 06:30:05;;;;;;;0.20;0.20;;;;;;;2.28;100.00;97647.75;4986519;28;20140;-74
2024/01/30 06:32:51;;;;;;;0.20;0.20;;;;;;;2.20;100.00;97633.56;4991970;28;20046;-72
2024/01/30 06:35:40;;;;;;;0.20;0.20;;;;;;;2.20;100.00;97627.47;4988209;28;20116;-74
2024/01/30 06:38:26;;;;;;;0.13;0.13;;;;;;;2.29;100.00;97631.72;4986867;28;20573;-73
2024/01/30 06:41:12;;;;;;;0.20;0.20;;;;;;;2.44;100.00;97637.16;4988028;28;20042;-74
2024/01/30 06:43:57;;;;;;;0.15;0.15;;;;;;;2.40;100.00;97633.19;4988526;28;20152;-75
2024/01/30 06:46:43;;;;;;;0.10;0.10;;;;;;;2.42;100.00;97632.03;4989631;28;20038;-75
2024/01/30 06:49:29;;;;;;;0.10;0.10;;;;;;;2.38;100.00;97636.00;4988250;28;20689;-73
2024/01/30 06:52:15;;;;;;;0.20;0.20;;;;;;;2.33;100.00;97640.97;4988408;28;20593;-74
2024/01/30 06:55:01;;;;;;;0.10;0.10;;;;;;;2.23;100.00;97648.25;4985988;28;20522;-73
2024/01/30 06:57:47;;;;;;;0.10;0.10;;;;;;;2.09;100.00;97647.09;4986469;28;20046;-73
2024/01/30 07:00:33;;;;;;;0.10;0.10;;;;;;;1.92;100.00;97648.91;4986161;28;20801;-74
2024/01/30 07:03:18;;;;;;;0.20;0.20;;;;;;;1.93;100.00;97641.81;4988901;28;20448;-76
2024/01/30 07:06:04;;;;;;;0.20;0.20;;;;;;;1.97;100.00;97648.44;4988302;28;20602;-73
2024/01/30 07:08:50;;;;;;;0.20;0.20;;;;;;;2.01;100.00;97651.56;4989437;28;20424;-74
2024/01/30 07:11:36;;;;;;;0.10;0.10;;;;;;;2.06;100.00;97643.97;4989326;28;20068;-76
2024/01/30 07:14:22;;;;;;;0.20;0.20;;;;;;;2.08;100.00;97644.63;4986966;28;20101;-75
2024/01/30 07:17:08;;;;;;;0.10;0.10;;;;;;;2.04;100.00;97646.78;4986991;28;20446;-75
2024/01/30 07:19:54;;;;;;;0.20;0.20;;;;;;;2.02;100.00;97648.75;4986613;28;20552;-74
2024/01/30 07:22:40;;;;;;;0.20;0.20;;;;;;;2.07;100.00;97654.38;4988214;28;20220;-76
2024/01/30 07:25:26;;;;;;;0.10;0.10;;;;;;;2.11;100.00;97660.16;4987027;28;20038;-77
2024/01/30 07:28:13;;;;;;;0.15;0.15;;;;;;;2.10;100.00;97661.13;4990265;28;20055;-74
2024/01/30 07:31:00;;;;;;;0.20;0.20;;;;;;;2.12;100.00;97659.97;4990214;28;20136;-75
2024/01/30 07:33:46;;;;;;;0.10;0.10;;;;;;;2.32;100.00;97657.81;4988114;28;20495;-75
2024/01/30 07:36:32;;;;;;;0.20;0.20;;;;;;;2.46;100.00;97672.16;4986906;28;20046;-74
2024/01/30 07:39:17;;;;;;;0.10;0.10;;;;;;;2.48;100.00;97665.69;4986137;28;20126;-73
2024/01/30 07:42:03;;;;;;;0.20;0.20;;;;;;;2.55;100.00;97657.94;5001920;28;20039;-77
2024/01/30 07:44:49;;;;;;;0.10;0.10;;;;;;;2.67;100.00;97661.06;5002764;28;20129;-77
2024/01/30 07:47:35;;;;;;;0.10;0.10;;;;;;;2.74;100.00;97659.38;4989846;28;20532;-77
2024/01/30 07:50:21;;;;;;;0.10;0.10;;;;;;;2.78;100.00;97665.97;4987808;28;20046;-76
2024/01/30 07:53:07;;;;;;;0.10;0.10;;;;;;;2.89;100.00;97662.16;4985663;28;20057;-76
2024/01/30 07:55:53;;;;;;;0.20;0.20;;;;;;;3.00;100.00;97654.66;4987279;28;20646;-73
2024/01/30 07:58:39;;;;;;;0.20;0.20;;;;;;;3.17;100.00;97658.03;4955227;28;20381;-76
2024/01/30 08:01:25;;;;;;;0.13;0.13;;;;;;;3.27;100.00;97660.50;4978278;28;20896;-75
2024/01/30 08:04:10;;;;;;;0.20;0.20;;;;;;;3.33;100.00;97665.06;4987853;28;20046;-76
2024/01/30 08:06:59;;;;;;;0.13;0.13;;;;;;;3.33;100.00;97651.84;4987382;28;20042;-75
2024/01/30 08:09:45;;;;;;;0.20;0.20;;;;;;;3.37;100.00;97674.34;4990190;28;20463;-73
2024/01/30 08:12:31;;;;;;;0.20;0.20;;;;;;;3.33;100.00;97675.66;4987655;28;20522;-72
2024/01/30 08:15:17;;;;;;;0.10;0.10;;;;;;;3.34;100.00;97675.47;5005111;28;20038;-75
2024/01/30 08:18:03;;;;;;;0.20;0.20;;;;;;;3.34;100.00;97680.78;4988329;28;20058;-76
2024/01/30 08:20:49;;;;;;;0.10;0.10;;;;;;;3.37;100.00;97684.09;4988786;28;20053;-75
2024/01/30 08:23:35;;;;;;;0.10;0.10;;;;;;;3.43;100.00;97675.47;4992310;28;20089;-75
2024/01/30 08:26:21;;;;;;;0.20;0.20;;;;;;;3.46;100.00;97675.09;4990507;28;20252;-74
2024/01/30 08:29:06;;;;;;;0.20;0.20;;;;;;;3.58;100.00;97682.50;4993200;28;20142;-73
2024/01/30 08:31:53;;;;;;;0.20;0.20;;;;;;;3.63;100.00;97674.84;4987253;28;20046;-74
2024/01/30 08:34:39;;;;;;;0.20;0.20;;;;;;;3.68;100.00;97676.16;4988582;28;20074;-77
2024/01/30 08:37:25;;;;;;;0.17;0.17;;;;;;;3.88;100.00;97678.13;4989850;28;20065;-76
2024/01/30 08:40:11;;;;;;;0.10;0.10;;;;;;;3.88;100.00;97675.47;4989936;28;20057;-75
2024/01/30 08:42:57;;;;;;;0.20;0.20;;;;;;;3.89;100.00;97666.56;4991722;28;20082;-76
2024/01/30 08:45:42;;;;;;;0.20;0.20;;;;;;;3.91;100.00;97676.97;4994199;28;20095;-73
2024/01/30 08:48:28;;;;;;;0.20;0.20;;;;;;;4.07;100.00;97676.84;4991549;28;20617;-73
2024/01/30 08:51:15;;;;;;;0.20;0.20;;;;;;;4.19;100.00;97691.31;4990893;28;20038;-74
2024/01/30 08:54:01;;;;;;;0.13;0.13;;;;;;;4.16;100.00;97689.03;4989833;28;20039;-77
2024/01/30 08:56:47;;;;;;;0.17;0.17;;;;;;;4.21;100.00;97679.72;4990393;28;21317;-74
2024/01/30 08:59:33;;;;;;;0.20;0.20;;;;;;;4.23;100.00;97697.09;4989121;28;20050;-76
2024/01/30 09:02:19;;;;;;;0.10;0.10;;;;;;;4.20;100.00;97684.19;4988992;28;20224;-74
2024/01/30 09:05:05;;;;;;;0.20;0.20;;;;;;;4.20;100.00;97700.06;4990381;28;20121;-76
2024/01/30 09:07:51;;;;;;;0.20;0.20;;;;;;;4.15;100.00;97679.44;4989752;28;20092;-74
2024/01/30 09:10:37;;;;;;;0.10;0.10;;;;;;;4.26;100.00;97687.94;4989259;28;20264;-76
2024/01/30 09:13:23;;;;;;;0.13;0.13;;;;;;;4.32;100.00;97690.72;4989764;28;20045;-75
2024/01/30 09:16:09;;;;;;;0.20;0.20;;;;;;;4.42;100.00;97695.75;4988384;28;20594;-76
2024/01/30 09:18:55;;;;;;;0.20;0.20;;;;;;;4.51;100.00;97696.50;4992042;28;20073;-75
2024/01/30 09:21:40;;;;;;;0.10;0.10;;;;;;;4.47;100.00;97694.22;4989187;28;20034;-74
2024/01/30 09:24:27;;;;;;;0.10;0.10;;;;;;;4.39;100.00;97689.00;4970122;28;20516;-73
2024/01/30 09:27:13;;;;;;;0.10;0.10;;;;;;;4.41;100.00;97679.03;4988482;28;20041;-74
2024/01/30 09:29:59;;;;;;;0.13;0.13;;;;;;;4.39;100.00;97686.34;4989815;28;20049;-75
2024/01/30 09:32:45;;;;;;;0.10;0.10;;;;;;;4.45;100.00;97684.81;4993633;28;20054;-75
2024/01/30 09:35:30;;;;;;;0.10;0.10;;;;;;;4.54;100.00;97681.06;4992428;28;20056;-74
2024/01/30 09:38:16;;;;;;;0.10;0.10;;;;;;;4.69;100.00;97689.06;4986509;28;20522;-75
2024/01/30 09:41:05;;;;;;;0.10;0.10;;;;;;;4.73;100.00;97691.16;4991510;28;20046;-74
2024/01/30 09:43:52;;;;;;;0.20;0.20;;;;;;;4.96;100.00;97701.69;4990993;28;20049;-74
2024/01/30 09:46:39;;;;;;;0.20;0.20;;;;;;;5.00;100.00;97702.16;4990021;28;20093;-75
2024/01/30 09:49:27;;;;;;;0.10;0.10;;;;;;;5.14;100.00;97703.97;4988306;28;20355;-74
2024/01/30 09:52:13;;;;;;;0.10;0.10;;;;;;;5.18;100.00;97710.56;4988535;28;20574;-74
2024/01/30 09:55:06;;;;;;;0.20;0.20;;;;;;;5.11;100.00;97699.03;4990880;28;20073;-72
2024/01/30 09:57:52;;;;;;;0.20;0.20;;;;;;;5.37;100.00;97701.22;4993079;28;20041;-76
2024/01/30 10:00:38;;;;;;;0.20;0.20;;;;;;;5.20;100.00;97695.25;4989350;28;20046;-74
2024/01/30 10:03:24;;;;;;;0.20;0.20;;;;;;;5.51;100.00;97707.50;4986761;28;20535;-72
2024/01/30 10:06:10;;;;;;;0.20;0.20;;;;;;;6.14;100.00;97709.44;4988434;28;20054;-77
2024/01/30 10:08:56;;;;;;;0.10;0.10;;;;;;;6.54;100.00;97706.34;4985758;28;20074;-76
2024/01/30 10:11:42;;;;;;;0.10;0.10;;;;;;;6.60;100.00;97708.19;4989775;28;20048;-75
2024/01/30 10:14:28;;;;;;;0.10;0.10;;;;;;;6.53;100.00;97717.97;4988035;28;20093;-75
2024/01/30 10:17:14;;;;;;;0.15;0.15;;;;;;;6.35;100.00;97719.25;4987742;28;20068;-75
2024/01/30 10:20:00;;;;;;;0.10;0.10;;;;;;;6.37;100.00;97725.19;4989359;28;20050;-73
2024/01/30 10:22:46;;;;;;;0.20;0.20;;;;;;;6.18;100.00;97720.53;4961566;28;20053;-73
2024/01/30 10:25:32;;;;;;;0.10;0.10;;;;;;;6.18;100.00;97711.72;4988502;28;20046;-73
2024/01/30 10:28:19;;;;;;;0.10;0.10;;;;;;;6.25;100.00;97704.66;4984757;28;20151;-74
2024/01/30 10:31:05;;;;;;;0.17;0.17;;;;;;;6.32;100.00;97716.97;4984863;28;20030;-75
2024/01/30 10:33:51;;;;;;;0.20;0.20;;;;;;;6.94;100.00;97704.78;4985447;28;20050;-76
2024/01/30 10:36:43;;;;;;;0.10;0.10;;;;;;;6.96;100.00;97710.72;4987843;28;20165;-75
2024/01/30 10:39:32;;;;;;;0.13;0.13;;;;;;;7.16;100.00;97708.16;4989547;28;20037;-75
2024/01/30 10:42:18;;;;;;;0.20;0.20;;;;;;;7.41;100.00;97700.53;4988965;28;20659;-76
2024/01/30 10:45:18;;;;;;;0.20;0.20;;;;;;;7.73;100.00;97705.16;4987593;28;20029;-72
2024/01/30 10:48:07;;;;;;;0.20;0.20;;;;;;;9.25;100.00;97700.91;4987567;28;20050;-74
2024/01/30 10:50:55;;;;;;;0.10;0.10;;;;;;;11.03;100.00;97694.47;4994659;28;20080;-77
2024/01/30 10:53:43;;;;;;;0.10;0.10;;;;;;;9.75;100.00;97705.47;4988082;28;20046;-75
2024/01/30 10:56:29;;;;;;;0.20;0.20;;;;;;;8.70;100.00;97703.06;4986577;28;20042;-75
2024/01/30 10:59:15;;;;;;;0.10;0.10;;;;;;;8.38;100.00;97703.66;4985879;28;20054;-74
2024/01/30 11:02:02;;;;;;;0.10;0.10;;;;;;;8.36;100.00;97708.41;4986291;28;20042;-75
2024/01/30 11:04:48;;;;;;;0.10;0.10;;;;;;;8.56;100.00;97699.56;4989267;28;20440;-74
2024/01/30 11:07:34;;;;;;;0.20;0.20;;;;;;;8.81;100.00;97697.13;4988347;28;20779;-73
2024/01/30 11:10:19;;;;;;;0.10;0.10;;;;;;;8.98;100.00;97695.66;4985293;28;20297;-74
2024/01/30 11:13:13;;;;;;;0.20;0.20;;;;;;;8.59;100.00;97700.00;4987722;28;20535;-75
2024/01/30 11:16:05;;;;;;;0.20;0.20;;;;;;;8.52;100.00;97696.50;4988656;28;20030;-74
2024/01/30 11:18:54;;;;;;;;;;;;;;;9.88;100.00;97707.25;4988861;28;20056;-74
2024/01/30 11:21:42;;;;;;;0.20;0.20;;;;;;;14.67;100.00;97696.44;4985673;28;19952;-77
2024/01/30 11:24:28;;;;;;;0.17;0.17;;;;;;;14.25;100.00;97695.16;4960871;28;20042;-76
2024/01/30 11:27:15;;;;;;;0.20;0.20;;;;;;;13.40;100.00;97693.19;4983636;28;20052;-74
2024/01/30 11:30:02;;;;;;;0.10;0.10;;;;;;;12.41;100.00;97698.38;4987830;28;20050;-75
2024/01/30 11:33:08;;;;;;;0.20;0.20;;;;;;;14.66;100.00;97699.38;4985993;28;20210;-74
2024/01/30 11:35:54;;;;;;;0.20;0.20;;;;;;;14.40;100.00;97700.81;4986834;28;20397;-76
2024/01/30 11:38:40;;;;;;;0.10;0.10;;;;;;;15.23;100.00;97694.59;4983724;28;20064;-76
2024/01/30 11:41:27;;;;;;;0.20;0.20;;;;;;;16.66;98.48;97691.66;4979680;28;20042;-78
2024/01/30 11:44:15;;;;;;;0.30;0.30;;;;;;;18.65;81.60;97682.59;4986970;28;20045;-77
2024/01/30 11:47:03;;;;;;;0.15;0.15;;;;;;;19.12;80.17;97676.06;4991804;28;20585;-74
2024/01/30 11:49:49;;;;;;;0.13;0.13;;;;;;;16.99;92.52;97678.97;4994036;28;20053;-75
2024/01/30 11:52:35;;;;;;;0.20;0.20;;;;;;;16.27;94.98;97676.72;4991351;28;20516;-77
2024/01/30 11:55:21;;;;;;;0.20;0.20;;;;;;;17.07;97.27;97669.56;4988433;28;20048;-76
2024/01/30 11:58:06;;;;;;;0.20;0.20;;;;;;;16.98;95.10;97661.13;4991062;28;20472;-76
2024/01/30 12:00:55;;;;;;;0.20;0.20;;;;;;;16.79;92.94;97659.88;4990389;28;20404;-74
2024/01/30 12:03:41;;;;;;;0.10;0.10;;;;;;;16.54;96.91;97644.25;4988661;28;20077;-75
2024/01/30 12:06:28;;;;;;;0.20;0.20;;;;;;;16.80;94.65;97632.59;4989865;28;20042;-74
2024/01/30 12:09:13;;;;;;;0.20;0.20;;;;;;;16.05;100.00;97625.47;4990083;28;20152;-75
2024/01/30 12:11:59;;;;;;;0.10;0.10;;;;;;;14.13;100.00;97639.47;4987065;28;20042;-74
2024/01/30 12:14:46;;;;;;;0.20;0.20;;;;;;;13.76;100.00;97624.78;4989390;28;20131;-72
2024/01/30 12:17:33;;;;;;;0.10;0.10;;;;;;;13.26;100.00;97628.13;4989962;28;20179;-74
2024/01/30 12:20:21;;;;;;;0.15;0.15;;;;;;;12.17;100.00;97630.41;4989689;28;20185;-76
2024/01/30 12:23:07;;;;;;;0.10;0.10;;;;;;;12.08;100.00;97640.66;4962344;28;20656;-77
2024/01/30 12:25:53;;;;;;;0.10;0.10;;;;;;;11.86;100.00;97624.25;4990673;28;20146;-74
2024/01/30 12:28:48;;;;;;;0.10;0.10;;;;;;;11.95;100.00;97632.78;4988828;28;20041;-76
2024/01/30 12:31:34;;;;;;;0.20;0.20;;;;;;;11.48;100.00;97634.44;4985598;28;20052;-75
2024/01/30 12:34:21;;;;;;;0.10;0.10;;;;;;;11.53;100.00;97626.53;4990177;28;20100;-76
2024/01/30 12:37:08;;;;;;;0.10;0.10;;;;;;;11.08;100.00;97622.31;4989809;28;20049;-76
2024/01/30 12:39:54;;;;;;;0.10;0.10;;;;;;;11.29;100.00;97623.75;4989072;28;20053;-75
2024/01/30 12:42:48;;;;;;;0.10;0.10;;;;;;;11.10;100.00;97630.13;4988820;28;20037;-74
2024/01/30 12:45:36;;;;;;;0.10;0.10;;;;;;;11.97;100.00;97628.00;4987540;28;20128;-76
2024/01/30 12:48:22;;;;;;;0.10;0.10;;;;;;;11.97;100.00;97639.56;4988950;28;20475;-72
2024/01/30 12:51:08;;;;;;;0.10;0.10;;;;;;;11.49;100.00;97636.06;4990223;28;20535;-74
2024/01/30 12:53:54;;;;;;;0.10;0.10;;;;;;;11.11;100.00;97632.59;4990065;28;20877;-74
2024/01/30 12:56:40;;;;;;;0.10;0.10;;;;;;;11.11;100.00;97642.47;4987907;28;20390;-76
2024/01/30 12:59:26;;;;;;;0.10;0.10;;;;;;;11.02;100.00;97646.50;4989467;28;20050;-74
2024/01/30 13:02:15;;;;;;;0.13;0.13;;;;;;;10.82;100.00;97652.88;4978193;28;20408;-73